createdAt,value
2022-08-14T00:01:54.927Z,54.77
2022-08-14T00:04:35.862Z,55.03
2022-08-14T00:07:11.371Z,54.76
2022-08-14T00:10:02.577Z,55.06
2022-08-14T00:12:33.900Z,55.39
2022-08-14T00:15:18.457Z,55.38
2022-08-14T00:17:53.140Z,55.25
2022-08-14T00:20:31.160Z,55.12
2022-08-14T00:23:16.350Z,55.27
2022-08-14T00:25:58.763Z,55.56
2022-08-14T00:28:35.171Z,55.73
2022-08-14T00:31:02.812Z,55.90
2022-08-14T00:33:50.543Z,56.14
2022-08-14T00:36:37.432Z,56.71
2022-08-14T00:39:04.767Z,56.11
2022-08-14T00:41:33.715Z,56.56
2022-08-14T00:44:01.373Z,56.63
2022-08-14T00:46:32.636Z,56.52
2022-08-14T00:49:02.174Z,56.63
2022-08-14T00:51:37.808Z,57.10
2022-08-14T00:54:11.058Z,57.27
2022-08-14T00:56:49.109Z,57.68
2022-08-14T00:59:16.175Z,57.79
2022-08-14T01:01:44.045Z,57.76
2022-08-14T01:04:52.412Z,57.69
2022-08-14T01:07:00.857Z,57.95
2022-08-14T01:09:31.911Z,58.04
2022-08-14T01:12:02.669Z,58.18
2022-08-14T01:14:30.023Z,58.23
2022-08-14T01:16:57.456Z,58.41
2022-08-14T01:19:44.129Z,59.06
2022-08-14T01:22:13.419Z,58.92
2022-08-14T01:24:45.558Z,59.05
2022-08-14T01:27:20.512Z,58.89
2022-08-14T01:30:03.288Z,59.33
2022-08-14T01:32:37.414Z,59.72
2022-08-14T01:35:20.561Z,59.95
2022-08-14T01:37:57.716Z,60.14
2022-08-14T01:40:33.160Z,59.81
2022-08-14T01:43:08.806Z,60.03
2022-08-14T01:45:41.021Z,60.55
2022-08-14T01:48:13.524Z,60.27
2022-08-14T01:50:42.201Z,60.65
2022-08-14T01:53:10.504Z,61.71
2022-08-14T01:55:40.409Z,62.21
2022-08-14T01:58:19.509Z,62.20
2022-08-14T02:00:54.370Z,61.74
2022-08-14T02:03:29.621Z,61.92
2022-08-14T02:06:03.588Z,61.56
2022-08-14T02:08:35.515Z,61.96
2022-08-14T02:11:18.808Z,62.13
2022-08-14T02:13:50.661Z,62.15
2022-08-14T02:16:22.300Z,62.02
2022-08-14T02:18:49.953Z,62.55
2022-08-14T02:21:19.543Z,62.40
2022-08-14T02:23:53.657Z,62.00
2022-08-14T02:26:32.951Z,62.16
2022-08-14T02:29:22.265Z,62.17
2022-08-14T02:31:54.049Z,62.35
2022-08-14T02:34:31.949Z,62.44
2022-08-14T02:37:07.111Z,62.83
2022-08-14T02:39:42.856Z,62.61
2022-08-14T02:42:12.839Z,62.54
2022-08-14T02:44:48.990Z,62.62
2022-08-14T02:47:19.161Z,62.72
2022-08-14T02:49:50.533Z,62.84
2022-08-14T02:52:55.600Z,63.17
2022-08-14T02:55:08.116Z,63.13
2022-08-14T02:57:39.734Z,63.50
2022-08-14T03:00:09.881Z,64.01
2022-08-14T03:02:55.963Z,63.67
2022-08-14T03:05:24.373Z,63.98
2022-08-14T03:07:51.901Z,63.88
2022-08-14T03:10:27.420Z,63.72
2022-08-14T03:13:00.603Z,64.28
2022-08-14T03:15:27.568Z,64.21
2022-08-14T03:17:56.899Z,64.49
2022-08-14T03:20:29.105Z,63.63
2022-08-14T03:23:02.995Z,63.92
2022-08-14T03:25:33.271Z,64.30
2022-08-14T03:28:04.184Z,65.05
2022-08-14T03:30:39.893Z,64.92
2022-08-14T03:33:10.549Z,64.60
2022-08-14T03:35:40.400Z,64.85
2022-08-14T03:39:13.605Z,64.92
2022-08-14T03:41:16.479Z,64.79
2022-08-14T03:43:44.879Z,65.67
2022-08-14T03:46:38.872Z,64.18
2022-08-14T03:49:02.984Z,65.02
2022-08-14T03:51:30.155Z,65.46
2022-08-14T03:53:58.105Z,65.49
2022-08-14T03:56:26.752Z,65.29
2022-08-14T03:58:58.126Z,65.57
2022-08-14T04:01:29.262Z,65.27
2022-08-14T04:04:06.290Z,65.44
2022-08-14T04:06:47.516Z,65.65
2022-08-14T04:09:14.504Z,65.71
2022-08-14T04:11:45.243Z,65.73
2022-08-14T04:14:16.612Z,66.38
2022-08-14T04:16:46.299Z,66.25
2022-08-14T04:19:19.890Z,66.25
2022-08-14T04:22:03.991Z,66.22
2022-08-14T04:24:37.829Z,65.80
2022-08-14T04:27:10.451Z,66.41
2022-08-14T04:29:42.617Z,66.24
2022-08-14T04:32:59.877Z,66.64
2022-08-14T04:34:57.952Z,66.43
2022-08-14T04:37:45.187Z,66.22
2022-08-14T04:40:31.744Z,66.73
2022-08-14T04:43:17.832Z,66.77
2022-08-14T04:45:45.289Z,66.99
2022-08-14T04:48:39.817Z,66.52
2022-08-14T04:51:07.863Z,66.63
2022-08-14T04:53:41.090Z,67.06
2022-08-14T04:56:30.750Z,67.43
2022-08-14T04:59:02.167Z,67.24
2022-08-14T05:01:39.564Z,67.32
2022-08-14T05:04:07.253Z,67.40
2022-08-14T05:06:38.896Z,67.28
2022-08-14T05:09:07.115Z,67.52
2022-08-14T05:11:37.132Z,67.84
2022-08-14T05:14:16.204Z,67.97
2022-08-14T05:16:52.752Z,67.77
2022-08-14T05:19:26.574Z,68.05
2022-08-14T05:22:15.618Z,68.15
2022-08-14T05:24:44.598Z,67.89
2022-08-14T05:27:11.312Z,68.01
2022-08-14T05:29:37.972Z,68.31
2022-08-14T05:32:07.689Z,68.17
2022-08-14T05:34:34.210Z,67.96
2022-08-14T05:37:03.173Z,67.65
2022-08-14T05:39:31.557Z,68.05
2022-08-14T05:42:00.414Z,68.05
2022-08-14T05:44:30.270Z,67.57
2022-08-14T05:46:58.699Z,67.76
2022-08-14T05:49:32.691Z,67.90
2022-08-14T05:52:01.802Z,68.80
2022-08-14T05:54:31.371Z,68.90
2022-08-14T05:57:04.456Z,67.60
2022-08-14T05:59:39.130Z,69.25
2022-08-14T06:02:11.095Z,68.96
2022-08-14T06:04:48.120Z,68.84
2022-08-14T06:07:16.312Z,68.81
2022-08-14T06:09:43.230Z,69.05
2022-08-14T06:12:55.112Z,68.79
2022-08-14T06:15:08.139Z,68.30
2022-08-14T06:17:58.779Z,68.91
2022-08-14T06:20:26.561Z,69.02
2022-08-14T06:22:55.349Z,68.39
2022-08-14T06:25:22.968Z,67.07
2022-08-14T06:27:49.792Z,68.17
2022-08-14T06:30:19.826Z,67.98
2022-08-14T06:32:47.791Z,67.46
2022-08-14T06:35:23.417Z,67.83
2022-08-14T06:37:55.401Z,67.26
2022-08-14T06:40:28.321Z,66.71
2022-08-14T06:43:16.314Z,66.54
2022-08-14T06:45:50.345Z,66.14
2022-08-14T06:48:24.953Z,65.97
2022-08-14T06:50:53.883Z,65.20
2022-08-14T06:53:22.193Z,64.90
2022-08-14T06:56:00.808Z,64.74
2022-08-14T06:58:31.666Z,64.17
2022-08-14T07:01:25.083Z,63.72
2022-08-14T07:04:22.902Z,63.64
2022-08-14T07:06:50.300Z,62.61
2022-08-14T07:09:22.641Z,63.02
2022-08-14T07:11:50.881Z,62.09
2022-08-14T07:14:17.695Z,62.30
2022-08-14T07:16:44.236Z,61.31
2022-08-14T07:19:11.506Z,61.81
2022-08-14T07:21:39.680Z,62.75
2022-08-14T07:24:06.769Z,62.22
2022-08-14T07:26:36.545Z,60.27
2022-08-14T07:29:05.743Z,60.53
2022-08-14T07:31:33.430Z,60.63
2022-08-14T07:34:00.039Z,58.80
2022-08-14T07:36:31.243Z,57.72
2022-08-14T07:38:59.701Z,58.86
2022-08-14T07:41:33.610Z,58.38
2022-08-14T07:44:29.669Z,59.30
2022-08-14T07:46:50.437Z,57.86
2022-08-14T07:49:17.672Z,56.18
2022-08-14T07:51:44.693Z,57.91
2022-08-14T07:54:12.166Z,56.84
2022-08-14T07:56:47.582Z,56.52
2022-08-14T07:59:18.018Z,56.42
2022-08-14T08:01:51.171Z,56.51
2022-08-14T08:04:24.337Z,55.72
2022-08-14T08:06:53.218Z,57.32
2022-08-14T08:09:23.909Z,56.17
2022-08-14T08:11:54.556Z,55.37
2022-08-14T08:14:25.401Z,55.02
2022-08-14T08:16:54.158Z,55.47
2022-08-14T08:19:20.808Z,55.08
2022-08-14T08:21:47.927Z,54.57
2022-08-14T08:24:19.872Z,53.65
2022-08-14T08:26:48.167Z,54.13
2022-08-14T08:29:28.598Z,53.94
2022-08-14T08:32:01.974Z,52.95
2022-08-14T08:34:45.945Z,53.34
2022-08-14T08:37:14.370Z,52.20
2022-08-14T08:40:03.487Z,51.94
2022-08-14T08:42:38.591Z,52.24
2022-08-14T08:45:12.243Z,52.80
2022-08-14T08:47:40.463Z,51.85
2022-08-14T08:50:31.258Z,51.80
2022-08-14T08:53:00.173Z,50.97
2022-08-14T08:55:40.346Z,51.91
2022-08-14T08:58:16.586Z,50.36
2022-08-14T09:00:54.167Z,49.85
2022-08-14T09:03:27.389Z,49.90
2022-08-14T09:05:58.350Z,50.01
2022-08-14T09:08:33.051Z,48.13
2022-08-14T09:11:19.750Z,48.30
2022-08-14T09:13:49.850Z,48.74
2022-08-14T09:16:20.665Z,48.63
2022-08-14T09:18:48.899Z,47.70
2022-08-14T09:21:16.434Z,48.30
2022-08-14T09:24:28.281Z,48.64
2022-08-14T09:26:29.947Z,47.47
2022-08-14T09:28:59.098Z,46.64
2022-08-14T09:31:28.695Z,47.66
2022-08-14T09:34:37.024Z,46.42
2022-08-14T09:37:23.394Z,46.77
2022-08-14T09:39:59.943Z,45.12
2022-08-14T09:42:44.949Z,45.08
2022-08-14T09:45:24.384Z,44.54
2022-08-14T09:47:54.593Z,44.93
2022-08-14T09:50:43.877Z,45.47
2022-08-14T09:53:17.985Z,44.14
2022-08-14T09:55:45.813Z,44.49
2022-08-14T09:58:22.614Z,42.91
2022-08-14T10:01:00.606Z,43.50
2022-08-14T10:03:35.526Z,43.01
2022-08-14T10:06:04.937Z,42.66
2022-08-14T10:08:42.862Z,42.63
2022-08-14T10:11:19.439Z,41.08
2022-08-14T10:13:56.083Z,40.99
2022-08-14T10:16:33.066Z,41.49
2022-08-14T10:19:05.306Z,40.91
2022-08-14T10:21:38.774Z,40.37
2022-08-14T10:24:36.462Z,40.39
2022-08-14T10:27:04.575Z,38.56
2022-08-14T10:29:34.128Z,39.70
2022-08-14T10:32:01.812Z,38.89
2022-08-14T10:34:35.681Z,39.37
2022-08-14T10:37:14.140Z,38.11
2022-08-14T10:40:01.373Z,36.87
2022-08-14T10:42:36.696Z,37.63
2022-08-14T10:45:18.372Z,37.63
2022-08-14T10:48:08.868Z,36.19
2022-08-14T10:50:32.425Z,36.88
2022-08-14T10:53:00.080Z,36.84
2022-08-14T10:55:45.349Z,37.09
2022-08-14T10:58:12.465Z,34.69
2022-08-14T11:00:55.606Z,35.41
2022-08-14T11:03:35.813Z,34.98
2022-08-14T11:06:20.091Z,34.86
2022-08-14T11:08:48.486Z,35.44
2022-08-14T11:11:18.102Z,33.44
2022-08-14T11:13:46.613Z,32.49
2022-08-14T11:16:18.308Z,32.10
2022-08-14T11:18:50.857Z,31.78
2022-08-14T11:21:23.025Z,32.41
2022-08-14T11:23:53.465Z,31.83
2022-08-14T11:26:24.431Z,33.42
2022-08-14T11:28:52.122Z,31.67
2022-08-14T11:31:23.792Z,31.84
2022-08-14T11:33:55.146Z,31.51
2022-08-14T11:37:02.467Z,32.80
2022-08-14T11:39:34.662Z,32.29
2022-08-14T11:42:07.747Z,31.90
2022-08-14T11:45:00.289Z,31.42
2022-08-14T11:47:34.783Z,32.76
2022-08-14T11:50:13.310Z,32.06
2022-08-14T11:52:40.537Z,30.78
2022-08-14T11:55:12.836Z,31.26
2022-08-14T11:57:41.505Z,31.57
2022-08-14T12:00:14.705Z,31.17
2022-08-14T12:03:03.400Z,31.05
2022-08-14T12:05:39.919Z,30.77
2022-08-14T12:08:12.025Z,29.93
2022-08-14T12:10:43.011Z,29.11
2022-08-14T12:13:17.777Z,28.79
2022-08-14T12:15:46.291Z,28.72
2022-08-14T12:18:19.379Z,28.43
2022-08-14T12:20:52.390Z,28.83
2022-08-14T12:23:22.598Z,28.61
2022-08-14T12:25:59.306Z,28.27
2022-08-14T12:28:33.721Z,28.30
2022-08-14T12:31:20.444Z,27.06
2022-08-14T12:33:59.781Z,27.55
2022-08-14T12:36:30.608Z,26.98
2022-08-14T12:38:58.809Z,28.72
2022-08-14T12:41:34.301Z,29.50
2022-08-14T12:44:06.465Z,30.32
2022-08-14T12:46:37.983Z,30.41
2022-08-14T12:49:13.522Z,29.25
2022-08-14T12:51:44.256Z,30.69
2022-08-14T12:54:27.683Z,31.55
2022-08-14T12:57:14.612Z,28.95
2022-08-14T12:59:45.640Z,29.34
2022-08-14T13:02:26.599Z,28.59
2022-08-14T13:04:56.586Z,28.95
2022-08-14T13:07:26.347Z,30.09
2022-08-14T13:09:58.400Z,30.08
2022-08-14T13:12:32.216Z,31.75
2022-08-14T13:15:08.849Z,31.82
2022-08-14T13:17:51.229Z,32.08
2022-08-14T13:20:24.447Z,32.12
2022-08-14T13:22:52.211Z,31.96
2022-08-14T13:25:21.764Z,32.10
2022-08-14T13:27:54.809Z,31.69
2022-08-14T13:30:24.616Z,31.19
2022-08-14T13:32:53.464Z,30.59
2022-08-14T13:35:22.553Z,30.92
2022-08-14T13:37:52.476Z,32.50
2022-08-14T13:40:26.437Z,33.12
2022-08-14T13:42:56.880Z,33.76
2022-08-14T13:45:33.944Z,32.52
2022-08-14T13:48:32.130Z,33.78
2022-08-14T13:51:01.720Z,33.45
2022-08-14T13:53:33.077Z,34.28
2022-08-14T13:56:01.551Z,31.73
2022-08-14T13:58:35.657Z,30.57
2022-08-14T14:01:02.363Z,29.18
2022-08-14T14:03:35.360Z,30.08
2022-08-14T14:06:03.872Z,30.56
2022-08-14T14:08:46.430Z,31.51
2022-08-14T14:11:17.198Z,31.96
2022-08-14T14:13:46.491Z,32.53
2022-08-14T14:16:15.476Z,32.79
2022-08-14T14:18:56.246Z,32.76
2022-08-14T14:21:26.644Z,33.12
2022-08-14T14:23:56.307Z,31.85
2022-08-14T14:26:25.077Z,29.08
2022-08-14T14:28:56.480Z,27.79
2022-08-14T14:31:29.893Z,29.41
2022-08-14T14:34:07.600Z,28.52
2022-08-14T14:36:52.464Z,29.98
2022-08-14T14:39:27.423Z,30.67
2022-08-14T14:41:59.616Z,31.26
2022-08-14T14:44:42.778Z,31.09
2022-08-14T14:47:10.780Z,30.44
2022-08-14T14:49:51.078Z,31.82
2022-08-14T14:52:26.899Z,28.56
2022-08-14T14:54:57.651Z,29.84
2022-08-14T14:57:35.682Z,28.53
2022-08-14T15:00:18.572Z,29.79
2022-08-14T15:02:52.339Z,28.71
2022-08-14T15:05:20.567Z,30.45
2022-08-14T15:07:49.660Z,28.84
2022-08-14T15:10:27.364Z,28.73
2022-08-14T15:13:00.326Z,29.44
2022-08-14T15:15:30.160Z,28.69
2022-08-14T15:17:59.467Z,27.16
2022-08-14T15:20:29.897Z,28.30
2022-08-14T15:23:08.004Z,27.90
2022-08-14T15:25:39.523Z,28.89
2022-08-14T15:28:11.476Z,27.38
2022-08-14T15:30:46.003Z,27.86
2022-08-14T15:34:13.128Z,27.24
2022-08-14T15:36:35.223Z,28.08
2022-08-14T15:39:02.084Z,28.24
2022-08-14T15:41:33.722Z,27.99
2022-08-14T15:44:25.234Z,29.20
2022-08-14T15:46:53.818Z,30.05
2022-08-14T15:49:21.750Z,31.88
2022-08-14T15:51:48.226Z,29.29
2022-08-14T15:54:17.800Z,30.94
2022-08-14T15:56:59.525Z,31.04
2022-08-14T15:59:27.990Z,28.33
2022-08-14T16:01:55.631Z,28.67
2022-08-14T16:04:24.050Z,29.77
2022-08-14T16:06:54.864Z,30.61
2022-08-14T16:09:22.778Z,29.78
2022-08-14T16:11:53.712Z,29.94
2022-08-14T16:14:21.550Z,28.85
2022-08-14T16:16:51.443Z,29.38
2022-08-14T16:19:30.335Z,31.15
2022-08-14T16:22:03.395Z,30.36
2022-08-14T16:25:00.479Z,31.58
2022-08-14T16:27:33.587Z,30.75
2022-08-14T16:30:20.294Z,30.56
2022-08-14T16:32:54.925Z,30.74
2022-08-14T16:35:26.409Z,31.16
2022-08-14T16:38:19.162Z,31.04
2022-08-14T16:41:16.893Z,31.60
2022-08-14T16:43:48.227Z,31.37
2022-08-14T16:46:22.200Z,31.44
2022-08-14T16:48:55.480Z,30.95
2022-08-14T16:51:23.996Z,32.56
2022-08-14T16:53:50.727Z,34.15
2022-08-14T16:56:23.600Z,32.41
2022-08-14T16:59:05.093Z,33.17
2022-08-14T17:01:31.839Z,34.01
2022-08-14T17:04:08.619Z,35.42
2022-08-14T17:06:55.377Z,35.50
2022-08-14T17:09:43.467Z,35.66
2022-08-14T17:12:33.352Z,35.96
2022-08-14T17:15:11.176Z,35.41
2022-08-14T17:17:49.859Z,35.80
2022-08-14T17:20:53.504Z,36.03
2022-08-14T17:23:12.147Z,36.16
2022-08-14T17:25:40.214Z,35.86
2022-08-14T17:28:49.965Z,36.07
2022-08-14T17:31:05.995Z,36.24
2022-08-14T17:33:40.802Z,36.35
2022-08-14T17:36:24.082Z,35.93
2022-08-14T17:39:15.150Z,36.86
2022-08-14T17:41:45.165Z,35.09
2022-08-14T17:44:45.397Z,35.45
2022-08-14T17:47:14.784Z,37.68
2022-08-14T17:49:52.146Z,37.99
2022-08-14T17:52:34.115Z,39.50
2022-08-14T17:55:12.705Z,38.56
2022-08-14T17:57:57.411Z,39.78
2022-08-14T18:00:26.446Z,40.09
2022-08-14T18:02:54.547Z,40.40
2022-08-14T18:05:23.405Z,39.38
2022-08-14T18:08:33.746Z,40.02
2022-08-14T18:10:57.364Z,40.11
2022-08-14T18:13:51.237Z,40.62
2022-08-14T18:16:20.172Z,40.43
2022-08-14T18:18:51.107Z,40.61
2022-08-14T18:21:24.073Z,40.35
2022-08-14T18:23:52.563Z,40.50
2022-08-14T18:26:37.230Z,40.45
2022-08-14T18:29:14.626Z,40.84
2022-08-14T18:31:43.966Z,40.70
2022-08-14T18:34:32.349Z,40.99
2022-08-14T18:37:09.474Z,42.70
2022-08-14T18:40:02.001Z,42.85
2022-08-14T18:42:33.295Z,42.47
2022-08-14T18:45:01.927Z,42.59
2022-08-14T18:47:56.616Z,42.50
2022-08-14T18:50:31.165Z,42.46
2022-08-14T18:53:07.534Z,46.92
2022-08-14T18:55:53.501Z,47.95
2022-08-14T18:58:31.266Z,48.50
2022-08-14T19:01:01.654Z,49.29
2022-08-14T19:03:34.276Z,48.37
2022-08-14T19:06:09.071Z,48.00
2022-08-14T19:08:45.428Z,47.56
2022-08-14T19:11:40.613Z,47.16
2022-08-14T19:14:08.068Z,47.92
2022-08-14T19:16:37.885Z,48.16
2022-08-14T19:19:11.913Z,48.15
2022-08-14T19:21:55.170Z,48.28
2022-08-14T19:24:34.085Z,48.07
2022-08-14T19:27:23.911Z,47.83
2022-08-14T19:30:19.703Z,48.83
2022-08-14T19:32:51.710Z,49.64
2022-08-14T19:35:49.913Z,49.76
2022-08-14T19:38:53.374Z,49.38
2022-08-14T19:41:33.821Z,49.76
2022-08-14T19:44:15.030Z,50.10
2022-08-14T19:47:02.479Z,50.06
2022-08-14T19:50:08.358Z,50.14
2022-08-14T19:52:25.913Z,50.74
2022-08-14T19:54:56.308Z,50.48
2022-08-14T19:57:25.711Z,50.55
2022-08-14T20:00:29.299Z,50.64
2022-08-14T20:03:10.154Z,51.05
2022-08-14T20:05:45.358Z,51.14
2022-08-14T20:10:57.990Z,51.53
2022-08-14T20:11:19.130Z,51.57
2022-08-14T20:14:29.719Z,51.99
2022-08-14T20:17:05.973Z,53.49
2022-08-14T20:19:37.957Z,53.66
2022-08-14T20:22:35.483Z,53.79
2022-08-14T20:25:11.006Z,53.28
2022-08-14T20:27:40.875Z,53.85
2022-08-14T20:30:35.117Z,53.77
2022-08-14T20:33:07.299Z,53.85
2022-08-14T20:35:42.276Z,53.87
2022-08-14T20:38:30.539Z,53.57
2022-08-14T20:41:05.553Z,55.01
2022-08-14T20:43:53.435Z,56.82
2022-08-14T20:46:29.602Z,56.87
2022-08-14T20:49:00.153Z,57.25
2022-08-14T20:51:47.631Z,56.99
2022-08-14T20:54:34.757Z,56.94
2022-08-14T20:57:11.874Z,57.57
2022-08-14T20:59:53.139Z,57.69
2022-08-14T21:02:46.175Z,57.62
2022-08-14T21:05:18.039Z,57.48
2022-08-14T21:07:51.078Z,57.31
2022-08-14T21:10:35.721Z,56.84
2022-08-14T21:13:26.373Z,57.15
2022-08-14T21:15:57.823Z,57.22
2022-08-14T21:18:26.068Z,57.09
2022-08-14T21:20:56.440Z,57.14
2022-08-14T21:23:23.180Z,57.65
2022-08-14T21:25:50.064Z,58.24
2022-08-14T21:28:29.450Z,58.20
2022-08-14T21:30:57.912Z,58.43
2022-08-14T21:33:25.373Z,58.38
2022-08-14T21:35:54.976Z,58.71
2022-08-14T21:38:33.805Z,59.51
2022-08-14T21:41:43.530Z,59.46
2022-08-14T21:44:18.226Z,58.61
2022-08-14T21:46:56.791Z,58.78
2022-08-14T21:49:34.038Z,58.91
2022-08-14T21:52:51.180Z,58.82
2022-08-14T21:55:09.382Z,58.86
2022-08-14T21:58:44.835Z,58.99
2022-08-14T22:00:34.975Z,57.68
2022-08-14T22:03:08.972Z,58.59
2022-08-14T22:05:38.932Z,58.79
2022-08-14T22:08:06.849Z,58.83
2022-08-14T22:10:34.729Z,58.98
2022-08-14T22:13:01.936Z,59.45
2022-08-14T22:15:30.055Z,59.89
2022-08-14T22:17:58.328Z,60.42
2022-08-14T22:20:28.704Z,60.63
2022-08-14T22:22:56.753Z,61.27
2022-08-14T22:25:33.874Z,61.57
2022-08-14T22:28:05.900Z,61.60
2022-08-14T22:30:34.100Z,62.37
2022-08-14T22:33:01.271Z,61.85
2022-08-14T22:35:29.254Z,61.48
2022-08-14T22:38:34.560Z,61.61
2022-08-14T22:41:02.092Z,60.96
2022-08-14T22:43:34.954Z,61.17
2022-08-14T22:46:02.795Z,61.19
2022-08-14T22:48:33.276Z,60.49
2022-08-14T22:51:06.306Z,60.60
2022-08-14T22:53:34.125Z,60.19
2022-08-14T22:56:01.261Z,60.70
2022-08-14T22:58:34.671Z,61.02
2022-08-14T23:01:04.669Z,61.23
2022-08-14T23:03:34.937Z,61.36
2022-08-14T23:06:04.352Z,61.18
2022-08-14T23:09:01.089Z,61.69
2022-08-14T23:11:38.104Z,61.88
2022-08-14T23:14:09.733Z,61.49
2022-08-14T23:16:39.203Z,61.80
2022-08-14T23:19:11.011Z,61.46
2022-08-14T23:21:46.332Z,61.15
2022-08-14T23:24:14.124Z,61.54
2022-08-14T23:26:48.988Z,61.50
2022-08-14T23:29:20.480Z,61.78
2022-08-14T23:31:48.941Z,61.78
2022-08-14T23:34:20.848Z,61.11
2022-08-14T23:36:56.220Z,63.29
2022-08-14T23:39:29.940Z,63.41
2022-08-14T23:42:02.496Z,64.39
2022-08-14T23:44:34.737Z,64.75
2022-08-14T23:47:03.466Z,65.22
2022-08-14T23:49:56.708Z,64.71
2022-08-14T23:55:11.396Z,63.81
2022-08-14T23:57:43.681Z,63.84
